sensor_id;sensor_type;location;lat;lon;timestamp;P1;durP1;ratioP1;P2;durP2;ratioP2
42514;SDS011;28144;49.920;18.730;2023-03-01T00:01:04;96.28;;;38.15;;
42514;SDS011;28144;49.920;18.730;2023-03-01T00:03:31;87.03;;;37.37;;
42514;SDS011;28144;49.920;18.730;2023-03-01T00:05:57;91.18;;;39.22;;
42514;SDS011;28144;49.920;18.730;2023-03-01T00:08:23;74.53;;;35.23;;
42514;SDS011;28144;49.920;18.730;2023-03-01T00:10:59;88.30;;;36.90;;
42514;SDS011;28144;49.920;18.730;2023-03-01T00:13:26;91.90;;;37.80;;
42514;SDS011;28144;49.920;18.730;2023-03-01T00:15:52;90.43;;;38.43;;
42514;SDS011;28144;49.920;18.730;2023-03-01T00:18:17;98.03;;;41.60;;
42514;SDS011;28144;49.920;18.730;2023-03-01T00:20:49;99.90;;;41.33;;
42514;SDS011;28144;49.920;18.730;2023-03-01T00:23:16;93.33;;;38.70;;
42514;SDS011;28144;49.920;18.730;2023-03-01T00:25:42;84.23;;;36.83;;
42514;SDS011;28144;49.920;18.730;2023-03-01T00:28:08;93.82;;;39.75;;
42514;SDS011;28144;49.920;18.730;2023-03-01T00:30:37;88.33;;;38.53;;
42514;SDS011;28144;49.920;18.730;2023-03-01T00:33:03;91.73;;;37.90;;
42514;SDS011;28144;49.920;18.730;2023-03-01T00:35:29;92.28;;;36.05;;
42514;SDS011;28144;49.920;18.730;2023-03-01T00:37:55;86.20;;;37.80;;
42514;SDS011;28144;49.920;18.730;2023-03-01T00:40:26;86.63;;;38.33;;
42514;SDS011;28144;49.920;18.730;2023-03-01T00:42:53;92.23;;;36.20;;
42514;SDS011;28144;49.920;18.730;2023-03-01T00:45:19;84.90;;;38.63;;
42514;SDS011;28144;49.920;18.730;2023-03-01T00:47:44;84.60;;;38.03;;
42514;SDS011;28144;49.920;18.730;2023-03-01T00:50:11;78.80;;;35.30;;
42514;SDS011;28144;49.920;18.730;2023-03-01T00:52:37;85.25;;;36.08;;
42514;SDS011;28144;49.920;18.730;2023-03-01T00:55:03;82.50;;;35.00;;
42514;SDS011;28144;49.920;18.730;2023-03-01T00:57:30;92.93;;;36.15;;
42514;SDS011;28144;49.920;18.730;2023-03-01T00:59:56;77.80;;;36.38;;
42514;SDS011;28144;49.920;18.730;2023-03-01T01:02:22;87.23;;;37.93;;
42514;SDS011;28144;49.920;18.730;2023-03-01T01:04:48;91.15;;;37.95;;
42514;SDS011;28144;49.920;18.730;2023-03-01T01:07:14;83.53;;;37.67;;
42514;SDS011;28144;49.920;18.730;2023-03-01T01:09:40;96.43;;;38.35;;
42514;SDS011;28144;49.920;18.730;2023-03-01T01:12:06;83.43;;;37.83;;
42514;SDS011;28144;49.920;18.730;2023-03-01T01:14:32;93.90;;;41.33;;
42514;SDS011;28144;49.920;18.730;2023-03-01T01:16:58;99.80;;;41.67;;
42514;SDS011;28144;49.920;18.730;2023-03-01T01:19:24;101.87;;;42.87;;
42514;SDS011;28144;49.920;18.730;2023-03-01T01:21:50;119.60;;;42.80;;
42514;SDS011;28144;49.920;18.730;2023-03-01T01:24:16;110.22;;;44.33;;
42514;SDS011;28144;49.920;18.730;2023-03-01T01:26:42;118.40;;;46.00;;
42514;SDS011;28144;49.920;18.730;2023-03-01T01:29:09;100.47;;;42.28;;
42514;SDS011;28144;49.920;18.730;2023-03-01T01:31:35;102.18;;;42.00;;
42514;SDS011;28144;49.920;18.730;2023-03-01T01:34:02;91.75;;;37.92;;
42514;SDS011;28144;49.920;18.730;2023-03-01T01:38:55;93.13;;;39.85;;
42514;SDS011;28144;49.920;18.730;2023-03-01T01:41:20;105.20;;;46.80;;
42514;SDS011;28144;49.920;18.730;2023-03-01T01:43:48;112.72;;;49.42;;
42514;SDS011;28144;49.920;18.730;2023-03-01T01:46:30;109.63;;;43.63;;
42514;SDS011;28144;49.920;18.730;2023-03-01T01:48:59;113.83;;;43.57;;
42514;SDS011;28144;49.920;18.730;2023-03-01T01:51:28;120.57;;;46.03;;
42514;SDS011;28144;49.920;18.730;2023-03-01T01:54:06;109.88;;;46.78;;
42514;SDS011;28144;49.920;18.730;2023-03-01T01:56:34;118.23;;;46.83;;
42514;SDS011;28144;49.920;18.730;2023-03-01T01:59:02;106.73;;;47.17;;
42514;SDS011;28144;49.920;18.730;2023-03-01T02:01:27;110.77;;;45.07;;
42514;SDS011;28144;49.920;18.730;2023-03-01T02:03:53;101.17;;;44.60;;
42514;SDS011;28144;49.920;18.730;2023-03-01T02:06:21;104.93;;;44.77;;
42514;SDS011;28144;49.920;18.730;2023-03-01T02:08:57;105.18;;;45.67;;
42514;SDS011;28144;49.920;18.730;2023-03-01T02:11:25;107.03;;;44.43;;
42514;SDS011;28144;49.920;18.730;2023-03-01T02:13:51;123.07;;;55.15;;
42514;SDS011;28144;49.920;18.730;2023-03-01T02:16:17;109.57;;;46.53;;
42514;SDS011;28144;49.920;18.730;2023-03-01T02:18:43;112.22;;;45.38;;
42514;SDS011;28144;49.920;18.730;2023-03-01T02:26:47;104.80;;;46.37;;
42514;SDS011;28144;49.920;18.730;2023-03-01T02:29:15;118.80;;;45.73;;
42514;SDS011;28144;49.920;18.730;2023-03-01T02:31:41;112.97;;;46.30;;
42514;SDS011;28144;49.920;18.730;2023-03-01T02:34:07;106.20;;;46.10;;
42514;SDS011;28144;49.920;18.730;2023-03-01T02:36:37;113.40;;;47.10;;
42514;SDS011;28144;49.920;18.730;2023-03-01T02:39:05;105.73;;;46.30;;
42514;SDS011;28144;49.920;18.730;2023-03-01T02:41:35;111.20;;;45.10;;
42514;SDS011;28144;49.920;18.730;2023-03-01T02:44:02;95.80;;;45.73;;
42514;SDS011;28144;49.920;18.730;2023-03-01T02:46:28;114.10;;;49.53;;
42514;SDS011;28144;49.920;18.730;2023-03-01T02:48:56;110.05;;;46.78;;
42514;SDS011;28144;49.920;18.730;2023-03-01T02:51:32;117.87;;;48.33;;
42514;SDS011;28144;49.920;18.730;2023-03-01T02:56:37;110.70;;;48.93;;
42514;SDS011;28144;49.920;18.730;2023-03-01T02:59:03;105.07;;;46.97;;
42514;SDS011;28144;49.920;18.730;2023-03-01T03:01:29;108.53;;;48.13;;
42514;SDS011;28144;49.920;18.730;2023-03-01T03:04:08;102.90;;;46.27;;
42514;SDS011;28144;49.920;18.730;2023-03-01T03:06:35;115.53;;;48.23;;
42514;SDS011;28144;49.920;18.730;2023-03-01T03:09:02;114.05;;;46.67;;
42514;SDS011;28144;49.920;18.730;2023-03-01T03:13:55;113.10;;;48.63;;
42514;SDS011;28144;49.920;18.730;2023-03-01T03:16:23;110.07;;;47.40;;
42514;SDS011;28144;49.920;18.730;2023-03-01T03:21:15;110.20;;;46.40;;
42514;SDS011;28144;49.920;18.730;2023-03-01T03:23:41;89.72;;;42.92;;
42514;SDS011;28144;49.920;18.730;2023-03-01T03:26:07;119.47;;;52.80;;
42514;SDS011;28144;49.920;18.730;2023-03-01T03:28:33;126.67;;;54.73;;
42514;SDS011;28144;49.920;18.730;2023-03-01T03:30:59;123.03;;;56.07;;
42514;SDS011;28144;49.920;18.730;2023-03-01T03:33:29;150.07;;;71.40;;
42514;SDS011;28144;49.920;18.730;2023-03-01T03:35:55;146.32;;;67.40;;
42514;SDS011;28144;49.920;18.730;2023-03-01T03:38:22;142.38;;;59.60;;
42514;SDS011;28144;49.920;18.730;2023-03-01T03:40:49;132.73;;;56.55;;
42514;SDS011;28144;49.920;18.730;2023-03-01T03:43:28;114.57;;;49.77;;
42514;SDS011;28144;49.920;18.730;2023-03-01T03:48:22;140.07;;;58.33;;
42514;SDS011;28144;49.920;18.730;2023-03-01T03:50:49;142.82;;;54.92;;
42514;SDS011;28144;49.920;18.730;2023-03-01T03:53:17;117.73;;;47.50;;
42514;SDS011;28144;49.920;18.730;2023-03-01T03:55:43;119.28;;;49.42;;
42514;SDS011;28144;49.920;18.730;2023-03-01T03:58:10;132.27;;;51.25;;
42514;SDS011;28144;49.920;18.730;2023-03-01T04:00:43;123.93;;;52.55;;
42514;SDS011;28144;49.920;18.730;2023-03-01T04:03:10;129.33;;;50.00;;
42514;SDS011;28144;49.920;18.730;2023-03-01T04:05:37;129.43;;;54.93;;
42514;SDS011;28144;49.920;18.730;2023-03-01T04:08:05;126.87;;;53.37;;
42514;SDS011;28144;49.920;18.730;2023-03-01T04:10:38;135.97;;;53.30;;
42514;SDS011;28144;49.920;18.730;2023-03-01T04:13:09;127.37;;;53.70;;
42514;SDS011;28144;49.920;18.730;2023-03-01T04:15:36;141.43;;;57.13;;
42514;SDS011;28144;49.920;18.730;2023-03-01T04:18:02;144.90;;;57.70;;
42514;SDS011;28144;49.920;18.730;2023-03-01T04:20:30;132.27;;;55.67;;
42514;SDS011;28144;49.920;18.730;2023-03-01T04:23:12;136.80;;;54.90;;
42514;SDS011;28144;49.920;18.730;2023-03-01T04:28:20;152.60;;;62.10;;
42514;SDS011;28144;49.920;18.730;2023-03-01T04:30:46;144.80;;;59.23;;
42514;SDS011;28144;49.920;18.730;2023-03-01T04:33:12;145.93;;;57.55;;
42514;SDS011;28144;49.920;18.730;2023-03-01T04:35:38;157.93;;;59.23;;
42514;SDS011;28144;49.920;18.730;2023-03-01T04:38:04;157.50;;;59.80;;
42514;SDS011;28144;49.920;18.730;2023-03-01T04:40:30;142.52;;;56.10;;
42514;SDS011;28144;49.920;18.730;2023-03-01T04:42:56;147.90;;;59.47;;
42514;SDS011;28144;49.920;18.730;2023-03-01T04:45:22;142.37;;;56.57;;
42514;SDS011;28144;49.920;18.730;2023-03-01T04:47:48;144.67;;;58.17;;
42514;SDS011;28144;49.920;18.730;2023-03-01T04:50:15;139.73;;;58.77;;
42514;SDS011;28144;49.920;18.730;2023-03-01T04:52:43;137.13;;;57.03;;
42514;SDS011;28144;49.920;18.730;2023-03-01T04:55:09;151.50;;;57.50;;
42514;SDS011;28144;49.920;18.730;2023-03-01T04:57:35;141.75;;;54.60;;
42514;SDS011;28144;49.920;18.730;2023-03-01T05:00:01;153.33;;;57.83;;
42514;SDS011;28144;49.920;18.730;2023-03-01T05:02:49;149.13;;;57.47;;
42514;SDS011;28144;49.920;18.730;2023-03-01T05:05:22;173.33;;;65.50;;
42514;SDS011;28144;49.920;18.730;2023-03-01T05:08:07;145.73;;;59.07;;
42514;SDS011;28144;49.920;18.730;2023-03-01T05:10:34;147.20;;;59.78;;
42514;SDS011;28144;49.920;18.730;2023-03-01T05:13:01;188.33;;;72.33;;
42514;SDS011;28144;49.920;18.730;2023-03-01T05:15:29;247.27;;;85.20;;
42514;SDS011;28144;49.920;18.730;2023-03-01T05:17:56;223.77;;;86.93;;
42514;SDS011;28144;49.920;18.730;2023-03-01T05:20:25;183.20;;;75.30;;
42514;SDS011;28144;49.920;18.730;2023-03-01T05:22:59;178.20;;;75.50;;
42514;SDS011;28144;49.920;18.730;2023-03-01T05:25:25;186.80;;;78.20;;
42514;SDS011;28144;49.920;18.730;2023-03-01T05:27:51;222.23;;;89.00;;
42514;SDS011;28144;49.920;18.730;2023-03-01T05:30:17;236.87;;;94.93;;
42514;SDS011;28144;49.920;18.730;2023-03-01T05:32:44;216.27;;;85.82;;
42514;SDS011;28144;49.920;18.730;2023-03-01T05:35:15;210.47;;;84.17;;
42514;SDS011;28144;49.920;18.730;2023-03-01T05:37:46;214.73;;;85.97;;
42514;SDS011;28144;49.920;18.730;2023-03-01T05:40:14;234.33;;;84.57;;
42514;SDS011;28144;49.920;18.730;2023-03-01T05:42:42;372.67;;;114.73;;
42514;SDS011;28144;49.920;18.730;2023-03-01T05:45:18;482.80;;;147.30;;
42514;SDS011;28144;49.920;18.730;2023-03-01T05:47:44;477.77;;;149.17;;
42514;SDS011;28144;49.920;18.730;2023-03-01T05:50:18;366.05;;;111.20;;
42514;SDS011;28144;49.920;18.730;2023-03-01T05:52:46;368.27;;;110.97;;
42514;SDS011;28144;49.920;18.730;2023-03-01T05:55:20;317.50;;;108.53;;
42514;SDS011;28144;49.920;18.730;2023-03-01T05:57:46;272.73;;;102.77;;
42514;SDS011;28144;49.920;18.730;2023-03-01T06:00:13;281.33;;;108.50;;
42514;SDS011;28144;49.920;18.730;2023-03-01T06:02:40;271.50;;;107.33;;
42514;SDS011;28144;49.920;18.730;2023-03-01T06:05:06;235.77;;;98.40;;
42514;SDS011;28144;49.920;18.730;2023-03-01T06:07:34;239.10;;;100.80;;
42514;SDS011;28144;49.920;18.730;2023-03-01T06:10:00;228.00;;;97.95;;
42514;SDS011;28144;49.920;18.730;2023-03-01T06:12:29;231.27;;;92.43;;
42514;SDS011;28144;49.920;18.730;2023-03-01T06:14:56;263.00;;;106.70;;
42514;SDS011;28144;49.920;18.730;2023-03-01T06:17:22;276.25;;;108.50;;
42514;SDS011;28144;49.920;18.730;2023-03-01T06:19:47;261.10;;;106.83;;
42514;SDS011;28144;49.920;18.730;2023-03-01T06:22:13;264.63;;;102.70;;
42514;SDS011;28144;49.920;18.730;2023-03-01T06:24:39;257.90;;;95.33;;
42514;SDS011;28144;49.920;18.730;2023-03-01T06:27:05;252.47;;;89.40;;
42514;SDS011;28144;49.920;18.730;2023-03-01T06:29:30;230.00;;;83.33;;
42514;SDS011;28144;49.920;18.730;2023-03-01T06:31:56;216.77;;;83.83;;
42514;SDS011;28144;49.920;18.730;2023-03-01T06:34:22;226.20;;;89.00;;
42514;SDS011;28144;49.920;18.730;2023-03-01T06:36:48;266.03;;;103.47;;
42514;SDS011;28144;49.920;18.730;2023-03-01T06:39:13;257.67;;;102.47;;
42514;SDS011;28144;49.920;18.730;2023-03-01T06:41:39;251.87;;;102.77;;
42514;SDS011;28144;49.920;18.730;2023-03-01T06:44:05;258.40;;;104.20;;
42514;SDS011;28144;49.920;18.730;2023-03-01T06:46:30;249.23;;;103.80;;
42514;SDS011;28144;49.920;18.730;2023-03-01T06:48:56;289.27;;;115.50;;
42514;SDS011;28144;49.920;18.730;2023-03-01T06:51:22;270.30;;;109.90;;
42514;SDS011;28144;49.920;18.730;2023-03-01T06:53:48;208.13;;;88.93;;
42514;SDS011;28144;49.920;18.730;2023-03-01T06:56:13;202.23;;;86.73;;
42514;SDS011;28144;49.920;18.730;2023-03-01T06:58:39;184.57;;;81.30;;
42514;SDS011;28144;49.920;18.730;2023-03-01T07:01:06;179.85;;;75.72;;
42514;SDS011;28144;49.920;18.730;2023-03-01T07:03:32;184.23;;;76.93;;
42514;SDS011;28144;49.920;18.730;2023-03-01T07:05:58;174.83;;;76.90;;
42514;SDS011;28144;49.920;18.730;2023-03-01T07:08:24;177.27;;;69.43;;
42514;SDS011;28144;49.920;18.730;2023-03-01T07:10:56;144.53;;;62.47;;
42514;SDS011;28144;49.920;18.730;2023-03-01T07:13:23;169.13;;;68.13;;
42514;SDS011;28144;49.920;18.730;2023-03-01T07:15:49;158.75;;;69.32;;
42514;SDS011;28144;49.920;18.730;2023-03-01T07:18:14;151.17;;;67.10;;
42514;SDS011;28144;49.920;18.730;2023-03-01T07:20:40;144.13;;;61.30;;
42514;SDS011;28144;49.920;18.730;2023-03-01T07:23:06;149.83;;;65.23;;
42514;SDS011;28144;49.920;18.730;2023-03-01T07:25:32;151.47;;;66.60;;
42514;SDS011;28144;49.920;18.730;2023-03-01T07:27:58;161.17;;;68.37;;
42514;SDS011;28144;49.920;18.730;2023-03-01T07:30:24;150.38;;;63.28;;
42514;SDS011;28144;49.920;18.730;2023-03-01T07:32:54;137.47;;;60.00;;
42514;SDS011;28144;49.920;18.730;2023-03-01T07:35:20;140.25;;;60.20;;
42514;SDS011;28144;49.920;18.730;2023-03-01T07:37:46;130.93;;;59.03;;
42514;SDS011;28144;49.920;18.730;2023-03-01T07:40:12;140.33;;;60.67;;
42514;SDS011;28144;49.920;18.730;2023-03-01T07:42:38;123.70;;;57.63;;
42514;SDS011;28144;49.920;18.730;2023-03-01T07:45:05;146.97;;;67.20;;
42514;SDS011;28144;49.920;18.730;2023-03-01T07:47:31;140.40;;;61.97;;
42514;SDS011;28144;49.920;18.730;2023-03-01T07:49:57;109.55;;;45.03;;
42514;SDS011;28144;49.920;18.730;2023-03-01T07:52:23;134.23;;;58.23;;
42514;SDS011;28144;49.920;18.730;2023-03-01T07:54:49;124.87;;;56.23;;
42514;SDS011;28144;49.920;18.730;2023-03-01T07:57:14;130.10;;;54.60;;
42514;SDS011;28144;49.920;18.730;2023-03-01T07:59:40;123.00;;;56.53;;
42514;SDS011;28144;49.920;18.730;2023-03-01T08:02:06;132.83;;;58.00;;
42514;SDS011;28144;49.920;18.730;2023-03-01T08:04:33;137.73;;;61.20;;
42514;SDS011;28144;49.920;18.730;2023-03-01T08:06:59;128.10;;;59.07;;
42514;SDS011;28144;49.920;18.730;2023-03-01T08:09:24;148.30;;;63.80;;
42514;SDS011;28144;49.920;18.730;2023-03-01T08:11:50;137.03;;;63.83;;
42514;SDS011;28144;49.920;18.730;2023-03-01T08:14:16;119.40;;;50.80;;
42514;SDS011;28144;49.920;18.730;2023-03-01T08:16:42;118.60;;;55.43;;
42514;SDS011;28144;49.920;18.730;2023-03-01T08:19:09;99.57;;;42.10;;
42514;SDS011;28144;49.920;18.730;2023-03-01T08:21:36;118.03;;;51.73;;
42514;SDS011;28144;49.920;18.730;2023-03-01T08:24:02;104.03;;;47.78;;
42514;SDS011;28144;49.920;18.730;2023-03-01T08:28:55;94.45;;;45.42;;
42514;SDS011;28144;49.920;18.730;2023-03-01T08:31:25;103.17;;;48.00;;
42514;SDS011;28144;49.920;18.730;2023-03-01T08:33:57;116.97;;;48.07;;
42514;SDS011;28144;49.920;18.730;2023-03-01T08:36:28;96.47;;;45.37;;
42514;SDS011;28144;49.920;18.730;2023-03-01T08:38:58;94.10;;;45.27;;
42514;SDS011;28144;49.920;18.730;2023-03-01T08:41:23;90.33;;;41.47;;
42514;SDS011;28144;49.920;18.730;2023-03-01T08:43:50;83.40;;;40.92;;
42514;SDS011;28144;49.920;18.730;2023-03-01T08:46:16;77.82;;;36.38;;
42514;SDS011;28144;49.920;18.730;2023-03-01T08:48:42;80.80;;;39.17;;
42514;SDS011;28144;49.920;18.730;2023-03-01T08:51:08;70.40;;;33.57;;
42514;SDS011;28144;49.920;18.730;2023-03-01T08:53:39;70.63;;;32.27;;
42514;SDS011;28144;49.920;18.730;2023-03-01T08:56:05;58.83;;;27.97;;
42514;SDS011;28144;49.920;18.730;2023-03-01T08:58:31;56.53;;;28.77;;
42514;SDS011;28144;49.920;18.730;2023-03-01T09:00:57;49.37;;;24.27;;
42514;SDS011;28144;49.920;18.730;2023-03-01T09:03:23;39.95;;;17.27;;
42514;SDS011;28144;49.920;18.730;2023-03-01T09:05:50;37.63;;;16.73;;
42514;SDS011;28144;49.920;18.730;2023-03-01T09:08:17;35.60;;;17.97;;
42514;SDS011;28144;49.920;18.730;2023-03-01T09:10:43;36.88;;;16.83;;
42514;SDS011;28144;49.920;18.730;2023-03-01T09:13:09;45.50;;;19.35;;
42514;SDS011;28144;49.920;18.730;2023-03-01T09:15:38;41.77;;;20.83;;
42514;SDS011;28144;49.920;18.730;2023-03-01T09:18:04;38.50;;;19.50;;
42514;SDS011;28144;49.920;18.730;2023-03-01T09:20:30;22.77;;;10.63;;
42514;SDS011;28144;49.920;18.730;2023-03-01T09:22:57;41.47;;;19.50;;
42514;SDS011;28144;49.920;18.730;2023-03-01T09:25:23;35.90;;;11.10;;
42514;SDS011;28144;49.920;18.730;2023-03-01T09:27:53;39.03;;;15.48;;
42514;SDS011;28144;49.920;18.730;2023-03-01T09:30:20;52.50;;;24.70;;
42514;SDS011;28144;49.920;18.730;2023-03-01T09:32:46;55.95;;;24.48;;
42514;SDS011;28144;49.920;18.730;2023-03-01T09:35:12;65.93;;;30.43;;
42514;SDS011;28144;49.920;18.730;2023-03-01T09:37:39;58.22;;;27.65;;
42514;SDS011;28144;49.920;18.730;2023-03-01T09:40:14;60.60;;;26.77;;
42514;SDS011;28144;49.920;18.730;2023-03-01T09:43:06;70.43;;;31.87;;
42514;SDS011;28144;49.920;18.730;2023-03-01T09:45:40;64.10;;;28.27;;
42514;SDS011;28144;49.920;18.730;2023-03-01T09:48:13;62.60;;;30.50;;
42514;SDS011;28144;49.920;18.730;2023-03-01T09:50:42;63.33;;;29.77;;
42514;SDS011;28144;49.920;18.730;2023-03-01T10:01:10;62.63;;;28.67;;
42514;SDS011;28144;49.920;18.730;2023-03-01T10:03:59;69.13;;;31.93;;
42514;SDS011;28144;49.920;18.730;2023-03-01T10:06:29;68.50;;;30.27;;
42514;SDS011;28144;49.920;18.730;2023-03-01T10:08:57;61.03;;;31.02;;
42514;SDS011;28144;49.920;18.730;2023-03-01T10:11:30;65.37;;;31.13;;
42514;SDS011;28144;49.920;18.730;2023-03-01T10:14:00;41.63;;;21.30;;
42514;SDS011;28144;49.920;18.730;2023-03-01T10:16:32;42.00;;;20.30;;
42514;SDS011;28144;49.920;18.730;2023-03-01T10:19:49;31.63;;;13.23;;
42514;SDS011;28144;49.920;18.730;2023-03-01T10:22:28;35.20;;;17.03;;
42514;SDS011;28144;49.920;18.730;2023-03-01T10:24:56;51.47;;;21.63;;
42514;SDS011;28144;49.920;18.730;2023-03-01T10:27:23;41.53;;;20.97;;
42514;SDS011;28144;49.920;18.730;2023-03-01T10:32:38;46.23;;;19.83;;
42514;SDS011;28144;49.920;18.730;2023-03-01T10:40:52;43.73;;;19.27;;
42514;SDS011;28144;49.920;18.730;2023-03-01T10:43:18;53.17;;;21.02;;
42514;SDS011;28144;49.920;18.730;2023-03-01T10:45:44;51.72;;;17.73;;
42514;SDS011;28144;49.920;18.730;2023-03-01T10:50:43;39.03;;;17.50;;
42514;SDS011;28144;49.920;18.730;2023-03-01T10:55:56;37.70;;;16.33;;
42514;SDS011;28144;49.920;18.730;2023-03-01T10:58:27;33.00;;;15.93;;
42514;SDS011;28144;49.920;18.730;2023-03-01T11:03:28;34.00;;;15.70;;
42514;SDS011;28144;49.920;18.730;2023-03-01T11:08:45;34.30;;;17.27;;
42514;SDS011;28144;49.920;18.730;2023-03-01T11:13:53;37.13;;;18.57;;
42514;SDS011;28144;49.920;18.730;2023-03-01T11:16:24;32.93;;;14.83;;
42514;SDS011;28144;49.920;18.730;2023-03-01T11:18:57;35.73;;;17.90;;
42514;SDS011;28144;49.920;18.730;2023-03-01T11:21:47;35.40;;;15.67;;
42514;SDS011;28144;49.920;18.730;2023-03-01T11:24:29;38.77;;;18.97;;
42514;SDS011;28144;49.920;18.730;2023-03-01T11:26:57;42.93;;;19.60;;
42514;SDS011;28144;49.920;18.730;2023-03-01T11:29:30;34.03;;;15.80;;
42514;SDS011;28144;49.920;18.730;2023-03-01T11:32:01;40.00;;;18.77;;
42514;SDS011;28144;49.920;18.730;2023-03-01T11:34:35;33.50;;;15.57;;
42514;SDS011;28144;49.920;18.730;2023-03-01T11:37:07;35.23;;;15.90;;
42514;SDS011;28144;49.920;18.730;2023-03-01T11:39:38;37.80;;;16.77;;
42514;SDS011;28144;49.920;18.730;2023-03-01T11:45:02;39.20;;;18.60;;
42514;SDS011;28144;49.920;18.730;2023-03-01T11:47:53;33.73;;;17.07;;
42514;SDS011;28144;49.920;18.730;2023-03-01T11:50:47;38.17;;;18.97;;
42514;SDS011;28144;49.920;18.730;2023-03-01T11:56:24;34.23;;;16.70;;
42514;SDS011;28144;49.920;18.730;2023-03-01T12:10:44;33.57;;;18.73;;
42514;SDS011;28144;49.920;18.730;2023-03-01T12:22:32;44.47;;;19.67;;
42514;SDS011;28144;49.920;18.730;2023-03-01T12:28:13;35.27;;;17.03;;
42514;SDS011;28144;49.920;18.730;2023-03-01T12:49:49;25.47;;;11.93;;
42514;SDS011;28144;49.920;18.730;2023-03-01T12:52:35;31.30;;;14.03;;
42514;SDS011;28144;49.920;18.730;2023-03-01T12:55:34;31.03;;;15.63;;
42514;SDS011;28144;49.920;18.730;2023-03-01T13:00:45;31.77;;;16.30;;
42514;SDS011;28144;49.920;18.730;2023-03-01T13:09:03;18.97;;;8.13;;
42514;SDS011;28144;49.920;18.730;2023-03-01T13:11:41;34.20;;;14.00;;
42514;SDS011;28144;49.920;18.730;2023-03-01T13:16:45;35.83;;;16.07;;
42514;SDS011;28144;49.920;18.730;2023-03-01T13:19:24;32.30;;;16.83;;
42514;SDS011;28144;49.920;18.730;2023-03-01T13:21:51;25.30;;;12.07;;
42514;SDS011;28144;49.920;18.730;2023-03-01T13:24:37;28.90;;;15.73;;
42514;SDS011;28144;49.920;18.730;2023-03-01T13:27:39;37.90;;;16.30;;
42514;SDS011;28144;49.920;18.730;2023-03-01T13:29:58;35.33;;;16.87;;
42514;SDS011;28144;49.920;18.730;2023-03-01T13:32:33;26.93;;;12.23;;
42514;SDS011;28144;49.920;18.730;2023-03-01T13:37:42;31.10;;;16.30;;
42514;SDS011;28144;49.920;18.730;2023-03-01T13:42:49;38.00;;;17.90;;
42514;SDS011;28144;49.920;18.730;2023-03-01T13:47:47;29.10;;;13.90;;
42514;SDS011;28144;49.920;18.730;2023-03-01T13:50:19;27.57;;;14.13;;
42514;SDS011;28144;49.920;18.730;2023-03-01T13:52:49;15.77;;;8.40;;
42514;SDS011;28144;49.920;18.730;2023-03-01T13:55:23;33.87;;;15.83;;
42514;SDS011;28144;49.920;18.730;2023-03-01T13:58:00;30.73;;;15.20;;
42514;SDS011;28144;49.920;18.730;2023-03-01T14:00:28;34.67;;;17.27;;
42514;SDS011;28144;49.920;18.730;2023-03-01T14:03:21;30.37;;;13.27;;
42514;SDS011;28144;49.920;18.730;2023-03-01T14:06:06;15.95;;;8.93;;
42514;SDS011;28144;49.920;18.730;2023-03-01T14:08:34;29.63;;;14.80;;
42514;SDS011;28144;49.920;18.730;2023-03-01T14:19:25;29.20;;;15.93;;
42514;SDS011;28144;49.920;18.730;2023-03-01T14:24:56;31.63;;;14.93;;
42514;SDS011;28144;49.920;18.730;2023-03-01T14:27:28;28.73;;;13.60;;
42514;SDS011;28144;49.920;18.730;2023-03-01T14:30:03;31.67;;;15.70;;
42514;SDS011;28144;49.920;18.730;2023-03-01T14:32:34;28.10;;;12.90;;
42514;SDS011;28144;49.920;18.730;2023-03-01T14:35:01;28.08;;;14.20;;
42514;SDS011;28144;49.920;18.730;2023-03-01T14:37:31;39.03;;;13.67;;
42514;SDS011;28144;49.920;18.730;2023-03-01T14:39:59;34.07;;;13.73;;
42514;SDS011;28144;49.920;18.730;2023-03-01T14:42:30;30.50;;;11.30;;
42514;SDS011;28144;49.920;18.730;2023-03-01T14:45:00;32.10;;;13.70;;
42514;SDS011;28144;49.920;18.730;2023-03-01T14:47:30;31.75;;;14.90;;
42514;SDS011;28144;49.920;18.730;2023-03-01T14:52:34;36.60;;;15.20;;
42514;SDS011;28144;49.920;18.730;2023-03-01T14:55:03;30.55;;;13.95;;
42514;SDS011;28144;49.920;18.730;2023-03-01T14:57:31;34.60;;;16.37;;
42514;SDS011;28144;49.920;18.730;2023-03-01T14:59:58;32.35;;;14.65;;
42514;SDS011;28144;49.920;18.730;2023-03-01T15:02:26;32.47;;;15.37;;
42514;SDS011;28144;49.920;18.730;2023-03-01T15:04:55;30.65;;;15.10;;
42514;SDS011;28144;49.920;18.730;2023-03-01T15:07:22;41.77;;;15.40;;
42514;SDS011;28144;49.920;18.730;2023-03-01T15:09:50;34.70;;;16.23;;
42514;SDS011;28144;49.920;18.730;2023-03-01T15:14:53;39.50;;;15.50;;
42514;SDS011;28144;49.920;18.730;2023-03-01T15:20:07;34.33;;;15.33;;
42514;SDS011;28144;49.920;18.730;2023-03-01T15:22:45;33.73;;;16.13;;
42514;SDS011;28144;49.920;18.730;2023-03-01T15:25:24;33.30;;;15.93;;
42514;SDS011;28144;49.920;18.730;2023-03-01T15:27:52;40.17;;;16.17;;
42514;SDS011;28144;49.920;18.730;2023-03-01T15:30:29;27.47;;;14.23;;
42514;SDS011;28144;49.920;18.730;2023-03-01T15:35:47;35.75;;;16.65;;
42514;SDS011;28144;49.920;18.730;2023-03-01T15:38:34;29.67;;;16.20;;
42514;SDS011;28144;49.920;18.730;2023-03-01T15:41:04;36.13;;;17.77;;
42514;SDS011;28144;49.920;18.730;2023-03-01T15:43:46;39.27;;;17.27;;
42514;SDS011;28144;49.920;18.730;2023-03-01T15:48:54;41.70;;;17.93;;
42514;SDS011;28144;49.920;18.730;2023-03-01T15:54:17;34.13;;;18.43;;
42514;SDS011;28144;49.920;18.730;2023-03-01T15:56:46;42.67;;;19.03;;
42514;SDS011;28144;49.920;18.730;2023-03-01T15:59:12;41.33;;;19.67;;
42514;SDS011;28144;49.920;18.730;2023-03-01T16:01:41;40.67;;;19.90;;
42514;SDS011;28144;49.920;18.730;2023-03-01T16:04:09;45.73;;;20.27;;
42514;SDS011;28144;49.920;18.730;2023-03-01T16:06:38;47.30;;;23.40;;
42514;SDS011;28144;49.920;18.730;2023-03-01T16:09:04;67.07;;;23.88;;
42514;SDS011;28144;49.920;18.730;2023-03-01T16:11:30;54.65;;;27.63;;
42514;SDS011;28144;49.920;18.730;2023-03-01T16:16:23;66.05;;;27.70;;
42514;SDS011;28144;49.920;18.730;2023-03-01T16:18:49;69.33;;;32.10;;
42514;SDS011;28144;49.920;18.730;2023-03-01T16:21:19;64.83;;;31.17;;
42514;SDS011;28144;49.920;18.730;2023-03-01T16:23:46;61.63;;;29.10;;
42514;SDS011;28144;49.920;18.730;2023-03-01T16:26:13;61.47;;;29.27;;
42514;SDS011;28144;49.920;18.730;2023-03-01T16:28:39;61.83;;;28.57;;
42514;SDS011;28144;49.920;18.730;2023-03-01T16:31:06;68.63;;;31.47;;
42514;SDS011;28144;49.920;18.730;2023-03-01T16:33:32;63.23;;;29.67;;
42514;SDS011;28144;49.920;18.730;2023-03-01T16:35:59;61.03;;;29.37;;
42514;SDS011;28144;49.920;18.730;2023-03-01T16:38:27;66.43;;;30.47;;
42514;SDS011;28144;49.920;18.730;2023-03-01T16:40:53;61.58;;;29.30;;
42514;SDS011;28144;49.920;18.730;2023-03-01T16:43:19;60.30;;;30.30;;
42514;SDS011;28144;49.920;18.730;2023-03-01T16:45:45;60.13;;;29.80;;